Terminal Aerodrome Forecast
Issued by NWS Wilmington, OH

Current Version | Previous Version | Graphics & Text | Print | Product List | Glossary On
Versions: 1 2 3 4 5 6 7 8 9 10 11 12 13 14 15 16
000
FTUS41 KILN 261136
TAFILN
TAF
KILN 261136Z 2612/2712 29008KT P6SM FEW250
     FM261600 22010KT P6SM SCT250
     FM270100 20006KT P6SM BKN120
     FM271000 18005KT P6SM BKN035=

USA.gov is the U.S. government's official web portal to all federal, state and local government web resources and services.